createdAt,value
2023-01-21T00:01:22.056Z,29.77
2023-01-21T00:03:50.714Z,27.47
2023-01-21T00:06:19.272Z,29.10
2023-01-21T00:08:47.700Z,32.97
2023-01-21T00:11:17.475Z,31.33
2023-01-21T00:13:46.604Z,32.80
2023-01-21T00:16:16.108Z,27.53
2023-01-21T00:18:44.589Z,29.77
2023-01-21T00:21:13.080Z,25.03
2023-01-21T00:23:41.736Z,32.87
2023-01-21T00:26:13.112Z,26.80
2023-01-21T00:28:45.173Z,27.27
2023-01-21T00:31:14.151Z,29.77
2023-01-21T00:33:42.606Z,28.80
2023-01-21T00:36:15.605Z,25.37
2023-01-21T00:38:45.086Z,34.63
2023-01-21T00:41:14.899Z,30.07
2023-01-21T00:43:44.052Z,29.60
2023-01-21T00:46:13.103Z,25.90
2023-01-21T00:48:41.565Z,26.60
2023-01-21T00:51:10.609Z,31.27
2023-01-21T00:53:42.853Z,29.67
2023-01-21T00:56:14.067Z,26.20
2023-01-21T00:58:46.025Z,32.97
2023-01-21T01:01:27.707Z,30.63
2023-01-21T01:03:56.111Z,30.83
2023-01-21T01:06:25.623Z,32.83
2023-01-21T01:08:55.233Z,28.27
2023-01-21T01:11:25.283Z,31.13
2023-01-21T01:13:57.374Z,32.17
2023-01-21T01:16:26.245Z,27.50
2023-01-21T01:18:54.841Z,27.17
2023-01-21T01:21:24.221Z,33.57
2023-01-21T01:23:53.411Z,33.27
2023-01-21T01:26:23.219Z,31.23
2023-01-21T01:28:51.659Z,31.50
2023-01-21T01:31:22.208Z,29.10
2023-01-21T01:33:51.232Z,32.83
2023-01-21T01:36:24.406Z,34.57
2023-01-21T01:38:54.151Z,25.13
2023-01-21T01:41:26.216Z,26.87
2023-01-21T01:44:04.779Z,30.20
2023-01-21T01:46:37.807Z,31.80
2023-01-21T01:49:15.102Z,28.57
2023-01-21T01:52:05.283Z,37.07
2023-01-21T01:54:37.947Z,31.03
2023-01-21T01:57:10.728Z,33.60
2023-01-21T01:59:40.748Z,31.00
2023-01-21T02:02:12.634Z,30.57
2023-01-21T02:04:55.561Z,29.63
2023-01-21T02:07:26.135Z,28.50
2023-01-21T02:09:55.769Z,32.53
2023-01-21T02:12:24.627Z,31.60
2023-01-21T02:14:53.151Z,37.80
2023-01-21T02:17:42.854Z,35.77
2023-01-21T02:20:41.203Z,32.00
2023-01-21T02:23:28.301Z,37.93
2023-01-21T02:26:05.717Z,32.50
2023-01-21T02:28:34.160Z,28.70
2023-01-21T02:31:23.688Z,29.33
2023-01-21T02:34:05.175Z,30.63
2023-01-21T02:37:14.873Z,35.43
2023-01-21T02:40:08.172Z,36.03
2023-01-21T02:42:39.686Z,34.73
2023-01-21T02:45:11.651Z,36.33
2023-01-21T02:48:14.888Z,40.70
2023-01-21T02:50:55.662Z,43.70
2023-01-21T02:53:29.792Z,43.60
2023-01-21T02:56:16.866Z,38.40
2023-01-21T02:58:56.568Z,42.35
2023-01-21T03:01:57.049Z,41.70
2023-01-21T03:05:04.627Z,50.30
2023-01-21T03:07:47.133Z,42.77
2023-01-21T03:10:33.774Z,42.40
2023-01-21T03:13:12.063Z,42.65
2023-01-21T03:16:16.495Z,42.55
2023-01-21T03:18:51.020Z,47.78
2023-01-21T03:21:26.531Z,47.70
2023-01-21T03:23:56.918Z,43.05
2023-01-21T03:26:33.479Z,49.13
2023-01-21T03:29:10.804Z,51.72
2023-01-21T03:31:41.121Z,45.60
2023-01-21T03:34:12.683Z,48.78
2023-01-21T03:36:59.485Z,42.17
2023-01-21T03:39:49.405Z,40.22
2023-01-21T03:42:18.515Z,43.28
2023-01-21T03:44:47.778Z,42.33
2023-01-21T03:47:32.628Z,41.53
2023-01-21T03:50:09.727Z,40.60
2023-01-21T03:52:43.007Z,43.85
2023-01-21T03:55:12.768Z,45.72
2023-01-21T03:57:41.653Z,40.72
2023-01-21T04:00:11.119Z,38.17
2023-01-21T04:02:40.030Z,33.95
2023-01-21T04:05:08.788Z,41.42
2023-01-21T04:07:37.257Z,37.38
2023-01-21T04:10:05.971Z,47.03
2023-01-21T04:12:34.468Z,37.67
2023-01-21T04:15:05.397Z,50.33
2023-01-21T04:17:34.003Z,50.60
2023-01-21T04:20:02.561Z,44.67
2023-01-21T04:22:30.950Z,36.92
2023-01-21T04:24:59.352Z,35.45
2023-01-21T04:27:27.799Z,38.05
2023-01-21T04:29:56.206Z,36.83
2023-01-21T04:32:24.617Z,39.65
2023-01-21T04:34:53.143Z,36.78
2023-01-21T04:37:21.569Z,31.95
2023-01-21T04:39:49.987Z,35.10
2023-01-21T04:42:18.491Z,28.40
2023-01-21T04:44:46.947Z,29.02
2023-01-21T04:47:15.386Z,27.65
2023-01-21T04:49:43.821Z,27.77
2023-01-21T04:52:12.388Z,30.80
2023-01-21T04:54:41.268Z,29.80
2023-01-21T04:57:09.853Z,25.67
2023-01-21T04:59:38.569Z,30.67
2023-01-21T05:02:06.992Z,27.08
2023-01-21T05:04:35.529Z,30.10
2023-01-21T05:07:04.160Z,26.33
2023-01-21T05:09:32.590Z,28.08
2023-01-21T05:12:01.090Z,28.42
2023-01-21T05:14:29.542Z,34.75
2023-01-21T05:16:59.012Z,26.55
2023-01-21T05:19:27.499Z,29.70
2023-01-21T05:21:56.247Z,33.30
2023-01-21T05:24:24.652Z,29.23
2023-01-21T05:26:53.428Z,30.33
2023-01-21T05:29:21.837Z,27.53
2023-01-21T05:31:50.315Z,30.95
2023-01-21T05:34:18.794Z,30.80
2023-01-21T05:36:47.251Z,35.63
2023-01-21T05:39:15.731Z,33.70
2023-01-21T05:41:44.206Z,32.42
2023-01-21T05:44:12.719Z,25.33
2023-01-21T05:46:41.130Z,24.73
2023-01-21T05:49:10.211Z,27.40
2023-01-21T05:51:38.658Z,27.30
2023-01-21T05:54:07.328Z,20.67
2023-01-21T05:56:35.796Z,28.10
2023-01-21T05:59:04.416Z,36.67
2023-01-21T06:01:32.822Z,31.60
2023-01-21T06:04:01.652Z,29.37
2023-01-21T06:06:30.051Z,29.75
2023-01-21T06:08:58.541Z,38.53
2023-01-21T06:11:27.118Z,37.10
2023-01-21T06:13:55.511Z,29.58
2023-01-21T06:16:23.961Z,34.28
2023-01-21T06:18:52.408Z,32.72
2023-01-21T06:21:21.031Z,36.20
2023-01-21T06:23:49.443Z,44.97
2023-01-21T06:26:18.089Z,48.83
2023-01-21T06:28:46.606Z,37.42
2023-01-21T06:31:15.578Z,40.20
2023-01-21T06:33:44.158Z,43.53
2023-01-21T06:36:12.632Z,58.63
2023-01-21T06:38:41.052Z,48.38
2023-01-21T06:41:09.474Z,44.97
2023-01-21T06:43:37.996Z,58.15
2023-01-21T06:46:06.674Z,67.35
2023-01-21T06:48:35.226Z,77.35
2023-01-21T06:51:03.974Z,87.53
2023-01-21T06:53:32.446Z,81.50
2023-01-21T06:56:01.287Z,59.75
2023-01-21T06:58:29.758Z,63.42
2023-01-21T07:00:58.639Z,69.30
2023-01-21T07:03:27.087Z,106.55
2023-01-21T07:05:55.539Z,105.05
2023-01-21T07:08:23.982Z,143.77
2023-01-21T07:10:52.584Z,100.20
2023-01-21T07:13:21.469Z,89.32
2023-01-21T07:15:50.004Z,114.55
2023-01-21T07:18:18.448Z,101.40
2023-01-21T07:20:46.896Z,106.78
2023-01-21T07:23:15.624Z,83.07
2023-01-21T07:25:44.015Z,85.07
2023-01-21T07:28:12.595Z,80.20
2023-01-21T07:30:41.072Z,91.57
2023-01-21T07:33:11.153Z,83.40
2023-01-21T07:35:39.717Z,103.43
2023-01-21T07:38:08.152Z,87.75
2023-01-21T07:40:36.638Z,72.05
2023-01-21T07:43:05.118Z,72.60
2023-01-21T07:45:33.940Z,61.63
2023-01-21T07:48:02.378Z,65.75
2023-01-21T07:50:31.306Z,61.90
2023-01-21T07:53:00.516Z,117.70
2023-01-21T07:55:30.575Z,69.45
2023-01-21T07:58:00.174Z,93.80
2023-01-21T08:00:29.985Z,88.85
2023-01-21T08:02:59.509Z,78.60
2023-01-21T08:05:28.449Z,67.53
2023-01-21T08:07:59.480Z,82.15
2023-01-21T08:10:28.267Z,79.95
2023-01-21T08:12:56.668Z,86.05
2023-01-21T08:15:25.133Z,61.78
2023-01-21T08:17:53.559Z,93.15
2023-01-21T08:20:22.000Z,68.57
2023-01-21T08:22:50.479Z,67.57
2023-01-21T08:25:19.408Z,79.65
2023-01-21T08:27:47.960Z,74.47
2023-01-21T08:30:16.844Z,73.15
2023-01-21T08:32:46.931Z,71.18
2023-01-21T08:35:15.751Z,87.10
2023-01-21T08:37:44.559Z,104.97
2023-01-21T08:40:13.505Z,66.63
2023-01-21T08:42:41.911Z,62.05
2023-01-21T08:45:11.024Z,51.60
2023-01-21T08:47:39.439Z,51.58
2023-01-21T08:50:08.712Z,227.32
2023-01-21T08:52:37.341Z,180.50
2023-01-21T08:55:05.942Z,146.63
2023-01-21T08:57:34.620Z,129.90
2023-01-21T09:00:03.079Z,137.52
2023-01-21T09:02:31.583Z,104.00
2023-01-21T09:05:00.052Z,97.82
2023-01-21T09:07:28.539Z,51.85
2023-01-21T09:09:56.963Z,69.05
2023-01-21T09:12:25.437Z,280.58
2023-01-21T09:14:53.886Z,237.90
2023-01-21T09:17:23.602Z,238.52
2023-01-21T09:19:53.591Z,155.93
2023-01-21T09:22:23.152Z,200.15
2023-01-21T09:24:51.600Z,48.30
2023-01-21T09:27:20.260Z,216.60
2023-01-21T09:29:48.688Z,47.28
2023-01-21T09:32:17.543Z,78.78
2023-01-21T09:34:45.944Z,38.45
2023-01-21T09:37:14.407Z,47.85
2023-01-21T09:39:42.891Z,46.40
2023-01-21T09:42:26.376Z,37.42
2023-01-21T09:44:57.725Z,35.97
2023-01-21T09:47:41.795Z,105.22
2023-01-21T09:50:15.219Z,35.50
2023-01-21T09:52:56.187Z,38.17
2023-01-21T09:55:50.688Z,42.97
2023-01-21T09:58:28.547Z,42.83
2023-01-21T10:01:14.581Z,43.40
2023-01-21T10:04:03.076Z,47.75
2023-01-21T10:06:50.313Z,62.58
2023-01-21T10:09:44.570Z,51.03
2023-01-21T10:12:26.491Z,58.42
2023-01-21T10:15:07.154Z,56.67
2023-01-21T10:17:52.712Z,80.72
2023-01-21T10:20:31.169Z,48.53
2023-01-21T10:23:48.918Z,48.45
2023-01-21T10:26:17.763Z,70.00
2023-01-21T10:28:51.707Z,44.72
2023-01-21T10:31:29.486Z,40.55
2023-01-21T10:33:58.130Z,49.08
2023-01-21T10:36:34.997Z,82.65
2023-01-21T10:39:29.021Z,57.03
2023-01-21T10:42:16.106Z,51.00
2023-01-21T10:45:06.590Z,79.00
2023-01-21T10:47:48.565Z,71.60
2023-01-21T10:50:39.790Z,60.08
2023-01-21T10:53:26.396Z,46.05
2023-01-21T10:56:30.104Z,52.08
2023-01-21T10:59:06.126Z,64.13
2023-01-21T11:01:38.388Z,39.13
2023-01-21T11:04:22.321Z,37.10
2023-01-21T11:07:07.540Z,30.60
2023-01-21T11:09:46.450Z,50.65
2023-01-21T11:12:20.630Z,43.17
2023-01-21T11:15:14.513Z,46.78
2023-01-21T11:17:46.038Z,36.03
2023-01-21T11:20:19.223Z,44.13
2023-01-21T11:22:49.880Z,32.53
2023-01-21T11:25:55.113Z,41.58
2023-01-21T11:28:33.052Z,31.95
2023-01-21T11:31:27.374Z,35.35
2023-01-21T11:33:56.818Z,39.47
2023-01-21T11:36:25.267Z,37.92
2023-01-21T11:39:07.438Z,42.85
2023-01-21T11:41:35.968Z,38.63
2023-01-21T11:44:18.620Z,35.30
2023-01-21T11:46:47.319Z,34.63
2023-01-21T11:49:20.792Z,35.15
2023-01-21T11:51:49.443Z,56.47
2023-01-21T11:54:23.567Z,50.40
2023-01-21T11:57:03.328Z,52.53
2023-01-21T11:59:36.807Z,53.70
2023-01-21T12:02:16.709Z,43.00
2023-01-21T12:04:51.954Z,47.25
2023-01-21T12:07:35.035Z,50.42
2023-01-21T12:10:15.174Z,63.75
2023-01-21T12:13:07.229Z,65.88
2023-01-21T12:16:04.263Z,67.10
2023-01-21T12:19:03.794Z,57.53
2023-01-21T12:22:02.834Z,60.30
2023-01-21T12:24:31.245Z,47.08
2023-01-21T12:27:03.199Z,44.22
2023-01-21T12:29:57.220Z,42.45
2023-01-21T12:32:35.711Z,57.05
2023-01-21T12:35:19.378Z,49.90
2023-01-21T12:38:20.606Z,71.03
2023-01-21T12:40:59.638Z,74.68
2023-01-21T12:43:38.115Z,44.58
2023-01-21T12:46:35.840Z,44.88
2023-01-21T12:49:18.669Z,46.75
2023-01-21T12:52:02.287Z,55.78
2023-01-21T12:54:38.706Z,43.05
2023-01-21T12:57:42.300Z,44.63
2023-01-21T13:00:16.953Z,60.05
2023-01-21T13:03:20.654Z,43.38
2023-01-21T13:06:12.542Z,36.42
2023-01-21T13:09:04.185Z,39.30
2023-01-21T13:11:51.109Z,60.35
2023-01-21T13:14:36.151Z,52.75
2023-01-21T13:17:35.626Z,48.47
2023-01-21T13:20:16.600Z,70.60
2023-01-21T13:23:16.863Z,130.70
2023-01-21T13:26:06.560Z,132.60
2023-01-21T13:29:15.093Z,61.90
2023-01-21T13:32:11.448Z,86.85
2023-01-21T13:34:57.613Z,82.05
2023-01-21T13:37:28.975Z,80.82
2023-01-21T13:40:15.893Z,52.05
2023-01-21T13:42:54.433Z,50.70
2023-01-21T13:45:34.940Z,78.05
2023-01-21T13:48:06.935Z,58.33
2023-01-21T13:51:01.822Z,58.08
2023-01-21T13:54:12.386Z,64.38
2023-01-21T13:57:07.251Z,74.30
2023-01-21T14:00:19.550Z,45.33
2023-01-21T14:03:17.642Z,52.70
2023-01-21T14:05:52.478Z,88.22
2023-01-21T14:08:44.121Z,69.15
2023-01-21T14:11:33.149Z,83.40
2023-01-21T14:14:41.386Z,65.07
2023-01-21T14:17:32.976Z,65.28
2023-01-21T14:20:13.355Z,76.53
2023-01-21T14:22:55.759Z,65.57
2023-01-21T14:25:24.220Z,109.82
2023-01-21T14:28:14.041Z,93.13
2023-01-21T14:31:07.490Z,76.50
2023-01-21T14:33:52.333Z,119.07
2023-01-21T14:36:25.203Z,65.03
2023-01-21T14:39:25.740Z,81.85
2023-01-21T14:41:57.340Z,98.20
2023-01-21T14:44:44.130Z,113.25
2023-01-21T14:47:23.757Z,70.93
2023-01-21T14:49:54.418Z,63.70
2023-01-21T14:52:33.321Z,74.45
2023-01-21T14:55:03.039Z,84.32
2023-01-21T14:57:35.123Z,84.93
2023-01-21T15:00:09.179Z,57.55
2023-01-21T15:02:45.151Z,78.80
2023-01-21T15:05:39.155Z,89.07
2023-01-21T15:08:14.874Z,97.65
2023-01-21T15:10:44.003Z,86.07
2023-01-21T15:13:34.078Z,72.03
2023-01-21T15:16:34.662Z,84.00
2023-01-21T15:19:12.200Z,104.30
2023-01-21T15:21:46.802Z,89.43
2023-01-21T15:24:27.723Z,115.63
2023-01-21T15:27:22.105Z,85.40
2023-01-21T15:29:57.603Z,131.02
2023-01-21T15:32:47.588Z,106.40
2023-01-21T15:35:48.234Z,116.30
2023-01-21T15:38:18.271Z,94.72
2023-01-21T15:40:52.918Z,81.38
2023-01-21T15:43:50.423Z,75.80
2023-01-21T15:46:33.728Z,95.60
2023-01-21T15:49:22.743Z,77.43
2023-01-21T15:52:26.040Z,78.07
2023-01-21T15:55:09.665Z,81.15
2023-01-21T15:57:53.437Z,102.97
2023-01-21T16:00:35.299Z,94.10
2023-01-21T16:03:25.675Z,85.85
2023-01-21T16:06:29.396Z,71.30
2023-01-21T16:09:06.879Z,81.25
2023-01-21T16:12:06.345Z,82.70
2023-01-21T16:15:18.420Z,57.47
2023-01-21T16:17:59.464Z,74.43
2023-01-21T16:20:28.345Z,91.88
2023-01-21T16:23:01.726Z,87.80
2023-01-21T16:25:30.274Z,97.97
2023-01-21T16:27:58.773Z,82.13
2023-01-21T16:30:32.799Z,68.07
2023-01-21T16:33:15.680Z,73.40
2023-01-21T16:35:51.207Z,77.80
2023-01-21T16:38:22.750Z,58.40
2023-01-21T16:41:00.739Z,52.15
2023-01-21T16:43:29.700Z,53.42
2023-01-21T16:46:05.686Z,48.53
2023-01-21T16:48:35.407Z,48.00
2023-01-21T16:51:04.520Z,50.28
2023-01-21T16:53:33.001Z,55.05
2023-01-21T16:56:01.649Z,50.08
2023-01-21T16:58:33.413Z,50.08
2023-01-21T17:01:09.948Z,51.15
2023-01-21T17:03:39.455Z,49.78
2023-01-21T17:06:13.501Z,42.83
2023-01-21T17:08:42.394Z,53.60
2023-01-21T17:11:12.871Z,44.65
2023-01-21T17:13:44.341Z,47.65
2023-01-21T17:16:26.515Z,40.42
2023-01-21T17:18:59.776Z,38.05
2023-01-21T17:21:48.051Z,38.67
2023-01-21T17:24:28.354Z,41.22
2023-01-21T17:27:09.951Z,41.88
2023-01-21T17:29:39.547Z,38.30
2023-01-21T17:32:27.849Z,38.47
2023-01-21T17:35:15.575Z,31.63
2023-01-21T17:37:44.644Z,37.50
2023-01-21T17:40:42.826Z,28.88
2023-01-21T17:43:23.656Z,36.15
2023-01-21T17:45:54.344Z,29.95
2023-01-21T17:48:33.465Z,29.70
2023-01-21T17:51:26.504Z,33.72
2023-01-21T17:54:01.688Z,29.77
2023-01-21T17:56:40.940Z,38.38
2023-01-21T17:59:40.269Z,32.65
2023-01-21T18:02:18.344Z,35.55
2023-01-21T18:04:47.235Z,37.97
2023-01-21T18:07:23.630Z,40.53
2023-01-21T18:09:59.751Z,44.30
2023-01-21T18:12:28.458Z,31.52
2023-01-21T18:14:56.861Z,31.77
2023-01-21T18:17:26.570Z,36.35
2023-01-21T18:19:57.719Z,30.95
2023-01-21T18:22:31.295Z,29.05
2023-01-21T18:25:01.283Z,33.47
2023-01-21T18:27:30.070Z,23.83
2023-01-21T18:29:59.725Z,27.25
2023-01-21T18:32:28.201Z,29.55
2023-01-21T18:34:57.046Z,26.60
2023-01-21T18:37:26.866Z,32.55
2023-01-21T18:39:55.315Z,26.23
2023-01-21T18:42:24.427Z,25.88
2023-01-21T18:44:52.848Z,28.48
2023-01-21T18:47:21.503Z,30.13
2023-01-21T18:49:51.697Z,27.42
2023-01-21T18:52:21.625Z,29.38
2023-01-21T18:54:50.130Z,28.83
2023-01-21T18:57:23.678Z,25.17
2023-01-21T18:59:52.100Z,28.75
2023-01-21T19:02:22.130Z,22.15
2023-01-21T19:04:51.317Z,26.55
2023-01-21T19:07:24.612Z,22.80
2023-01-21T19:09:53.184Z,19.33
2023-01-21T19:12:23.743Z,14.52
2023-01-21T19:14:52.424Z,15.73
2023-01-21T19:17:29.667Z,17.33
2023-01-21T19:19:58.565Z,18.08
2023-01-21T19:22:27.140Z,17.60
2023-01-21T19:24:55.567Z,14.27
2023-01-21T19:27:36.538Z,12.85
2023-01-21T19:30:12.359Z,14.82
2023-01-21T19:32:40.788Z,12.90
2023-01-21T19:35:10.184Z,14.15
2023-01-21T19:37:41.731Z,18.08
2023-01-21T19:40:20.112Z,14.50
2023-01-21T19:42:49.464Z,13.85
2023-01-21T19:45:19.209Z,14.68
2023-01-21T19:47:50.254Z,13.90
2023-01-21T19:50:21.488Z,14.25
2023-01-21T19:52:51.715Z,17.13
2023-01-21T19:55:25.685Z,13.60
2023-01-21T19:58:00.913Z,13.98
2023-01-21T20:00:32.420Z,16.85
2023-01-21T20:03:01.234Z,14.73
2023-01-21T20:05:34.519Z,15.35
2023-01-21T20:08:03.692Z,16.13
2023-01-21T20:10:32.673Z,16.83
2023-01-21T20:13:01.377Z,16.35
2023-01-21T20:15:32.544Z,13.90
2023-01-21T20:18:03.672Z,14.95
2023-01-21T20:20:34.358Z,12.68
2023-01-21T20:23:03.019Z,14.07
2023-01-21T20:25:38.714Z,13.30
2023-01-21T20:28:24.078Z,14.45
2023-01-21T20:30:54.796Z,15.55
2023-01-21T20:33:27.220Z,15.80
2023-01-21T20:35:57.548Z,11.82
2023-01-21T20:38:32.470Z,12.73
2023-01-21T20:41:02.716Z,13.18
2023-01-21T20:43:31.271Z,14.02
2023-01-21T20:46:04.768Z,11.70
2023-01-21T20:48:42.155Z,10.10
2023-01-21T20:51:11.463Z,12.63
2023-01-21T20:53:40.738Z,9.25
2023-01-21T20:56:27.664Z,12.65
2023-01-21T20:58:56.248Z,12.10
2023-01-21T21:01:25.946Z,8.73
2023-01-21T21:03:54.767Z,10.70
2023-01-21T21:06:27.524Z,7.47
2023-01-21T21:08:56.590Z,9.30
2023-01-21T21:11:26.618Z,7.33
2023-01-21T21:13:55.042Z,8.30
2023-01-21T21:16:32.671Z,7.80
2023-01-21T21:19:02.063Z,6.10
2023-01-21T21:21:30.591Z,9.13
2023-01-21T21:23:59.080Z,8.57
2023-01-21T21:26:30.135Z,5.70
2023-01-21T21:29:00.982Z,5.87
2023-01-21T21:31:33.638Z,5.27
2023-01-21T21:34:02.156Z,7.20
2023-01-21T21:36:31.080Z,4.83
2023-01-21T21:39:00.927Z,5.37
2023-01-21T21:41:47.787Z,6.13
2023-01-21T21:44:16.216Z,8.53
2023-01-21T21:47:02.924Z,5.80
2023-01-21T21:49:31.505Z,5.57
2023-01-21T21:52:02.784Z,6.40
2023-01-21T21:54:31.934Z,4.87
2023-01-21T21:57:00.385Z,5.50
2023-01-21T21:59:28.860Z,7.40
2023-01-21T22:01:57.693Z,5.47
2023-01-21T22:04:26.140Z,6.30
2023-01-21T22:06:54.569Z,4.40
2023-01-21T22:09:23.108Z,4.50
2023-01-21T22:11:51.510Z,4.87
2023-01-21T22:14:19.976Z,3.93
2023-01-21T22:16:50.820Z,6.40
2023-01-21T22:19:19.361Z,5.33
2023-01-21T22:21:48.457Z,4.57
2023-01-21T22:24:16.870Z,9.97
2023-01-21T22:26:45.637Z,5.70
2023-01-21T22:29:14.197Z,8.63
2023-01-21T22:31:43.265Z,8.60
2023-01-21T22:34:12.749Z,8.23
2023-01-21T22:36:43.059Z,3.80
2023-01-21T22:39:12.966Z,8.10
2023-01-21T22:41:41.360Z,4.30
2023-01-21T22:44:09.877Z,3.87
2023-01-21T22:46:38.333Z,4.13
2023-01-21T22:49:07.418Z,5.33
2023-01-21T22:51:35.848Z,5.20
2023-01-21T22:54:04.347Z,6.27
2023-01-21T22:56:50.535Z,4.00
2023-01-21T22:59:20.386Z,5.50
2023-01-21T23:01:51.662Z,4.87
2023-01-21T23:04:20.828Z,8.50
2023-01-21T23:06:50.891Z,4.73
2023-01-21T23:09:19.383Z,7.50
2023-01-21T23:11:48.030Z,5.87
2023-01-21T23:14:17.370Z,4.23
2023-01-21T23:16:46.175Z,6.53
2023-01-21T23:19:15.232Z,5.90
2023-01-21T23:21:43.739Z,4.67
2023-01-21T23:24:12.739Z,4.17
2023-01-21T23:26:41.192Z,4.50
2023-01-21T23:29:09.601Z,3.77
2023-01-21T23:31:38.128Z,5.40
2023-01-21T23:34:06.731Z,4.87
2023-01-21T23:36:35.284Z,3.90
2023-01-21T23:39:03.675Z,4.13
2023-01-21T23:41:32.699Z,5.60
2023-01-21T23:44:02.627Z,5.20
2023-01-21T23:46:31.738Z,9.17
2023-01-21T23:49:00.670Z,5.13
2023-01-21T23:51:29.119Z,3.93
2023-01-21T23:53:57.929Z,5.47
2023-01-21T23:56:27.373Z,4.87
2023-01-21T23:58:55.909Z,6.80
